Time;durP1;ratioP1;P1;durP2;ratioP2;P2;SDS_P1;SDS_P2;PMS_P1;PMS_P2;Temp;Humidity;BMP_temperature;BMP_pressure;BME280_temperature;BME280_humidity;BME280_pressure;Samples;Min_cycle;Max_cycle;Signal;HPM_P1;HPM_P2
2023/12/19 00:01:28;;;;;;;6.78;4.95;;;8.20;79.60;;;;;;5015507;28;20121;-80
2023/12/19 00:03:54;;;;;;;5.50;4.35;;;8.20;79.70;;;;;;5032683;28;20080;-80
2023/12/19 00:06:20;;;;;;;6.80;5.20;;;8.20;79.60;;;;;;5015380;28;20026;-79
2023/12/19 00:08:46;;;;;;;6.05;4.60;;;8.20;79.70;;;;;;5033530;28;20030;-81
2023/12/19 00:11:11;;;;;;;8.95;5.03;;;8.20;79.70;;;;;;5033103;28;20026;-80
2023/12/19 00:13:37;;;;;;;6.80;4.95;;;8.30;79.70;;;;;;5033174;28;20030;-80
2023/12/19 00:16:03;;;;;;;6.00;4.50;;;8.30;79.70;;;;;;5032873;28;20030;-80
2023/12/19 00:18:30;;;;;;;5.63;4.60;;;8.20;79.70;;;;;;5014512;28;20116;-81
2023/12/19 00:20:56;;;;;;;6.60;4.75;;;8.30;79.80;;;;;;5032522;28;20029;-80
2023/12/19 00:23:22;;;;;;;6.50;5.00;;;8.20;79.70;;;;;;5037292;28;20438;-80
2023/12/19 00:25:48;;;;;;;5.88;4.68;;;8.30;79.70;;;;;;5037182;28;20032;-80
2023/12/19 00:28:14;;;;;;;6.05;4.60;;;8.30;79.70;;;;;;5019241;28;20476;-81
2023/12/19 00:30:40;;;;;;;5.22;4.13;;;8.30;79.70;;;;;;5036606;28;20021;-81
2023/12/19 00:33:05;;;;;;;5.35;4.35;;;8.30;79.70;;;;;;5036668;28;20060;-81
2023/12/19 00:35:34;;;;;;;6.30;4.88;;;8.30;79.70;;;;;;5036408;28;20049;-80
2023/12/19 00:38:02;;;;;;;5.90;4.50;;;8.20;79.60;;;;;;5036775;28;20476;-80
2023/12/19 00:40:28;;;;;;;5.53;3.92;;;8.30;79.70;;;;;;5015505;28;20483;-81
2023/12/19 00:42:54;;;;;;;6.22;4.43;;;8.30;79.70;;;;;;5018864;28;20069;-80
2023/12/19 00:45:20;;;;;;;4.97;4.05;;;8.30;79.60;;;;;;5036603;28;20022;-82
2023/12/19 00:47:45;;;;;;;4.70;3.70;;;8.30;79.60;;;;;;5036566;28;20034;-80
2023/12/19 00:50:15;;;;;;;5.88;4.18;;;8.30;79.60;;;;;;5035378;28;20032;-80
2023/12/19 00:52:41;;;;;;;5.35;4.28;;;8.30;79.60;;;;;;5018812;28;20454;-80
2023/12/19 00:55:07;;;;;;;5.32;4.13;;;8.30;79.60;;;;;;5017565;28;20053;-81
2023/12/19 00:57:33;;;;;;;5.30;3.85;;;8.30;79.60;;;;;;5036117;28;20388;-79
2023/12/19 00:59:59;;;;;;;5.22;3.97;;;8.30;79.60;;;;;;5036205;28;20041;-81
2023/12/19 01:02:27;;;;;;;5.35;4.25;;;8.30;79.60;;;;;;5023021;28;20061;-80
2023/12/19 01:04:56;;;;;;;5.60;4.10;;;8.30;79.60;;;;;;5026024;28;20049;-81
2023/12/19 01:07:22;;;;;;;5.28;4.00;;;8.20;79.50;;;;;;5042250;28;20021;-79
2023/12/19 01:09:48;;;;;;;5.40;3.90;;;8.20;79.50;;;;;;5039659;28;20395;-81
2023/12/19 01:12:14;;;;;;;4.80;3.53;;;8.30;79.70;;;;;;5027646;28;20022;-81
2023/12/19 01:14:39;;;;;;;5.65;4.30;;;8.20;79.60;;;;;;5036254;28;20026;-80
2023/12/19 01:17:05;;;;;;;4.70;3.85;;;8.20;79.60;;;;;;5035875;28;20104;-80
2023/12/19 01:19:31;;;;;;;4.80;3.85;;;8.20;79.60;;;;;;5036691;28;20352;-80
2023/12/19 01:21:57;;;;;;;5.63;4.18;;;8.20;79.60;;;;;;5036037;28;20025;-82
2023/12/19 01:24:22;;;;;;;5.03;3.92;;;8.20;79.60;;;;;;5035869;28;20076;-80
2023/12/19 01:26:49;;;;;;;5.43;4.22;;;8.20;80.20;;;;;;5035249;28;20030;-80
2023/12/19 01:29:15;;;;;;;6.05;4.07;;;8.20;79.70;;;;;;5018433;28;20076;-80
2023/12/19 01:31:41;;;;;;;5.00;3.85;;;8.20;79.70;;;;;;5017791;28;20131;-80
2023/12/19 01:34:07;;;;;;;5.60;4.35;;;8.20;79.70;;;;;;5035533;28;20030;-80
2023/12/19 01:36:33;;;;;;;5.50;4.00;;;8.20;79.70;;;;;;5036303;28;20030;-81
2023/12/19 01:38:59;;;;;;;5.53;4.20;;;8.20;79.70;;;;;;5035515;28;20029;-82
2023/12/19 01:41:24;;;;;;;6.13;4.38;;;8.20;79.70;;;;;;5035577;28;20030;-80
2023/12/19 01:43:50;;;;;;;5.53;4.40;;;8.20;79.70;;;;;;5035368;28;20109;-80
2023/12/19 01:46:17;;;;;;;5.20;4.10;;;8.20;79.70;;;;;;5017301;28;20112;-80
2023/12/19 01:48:44;;;;;;;5.22;3.97;;;8.20;79.70;;;;;;5017468;28;20030;-80
2023/12/19 01:51:11;;;;;;;5.15;3.92;;;8.20;79.70;;;;;;5035012;28;20025;-80
2023/12/19 01:53:38;;;;;;;5.30;4.15;;;8.20;79.70;;;;;;5034804;28;20029;-80
2023/12/19 01:56:04;;;;;;;5.60;4.18;;;8.20;79.70;;;;;;5016660;28;20048;-79
2023/12/19 01:58:30;;;;;;;4.32;3.70;;;8.20;79.70;;;;;;5034330;28;20037;-80
2023/12/19 02:00:57;;;;;;;5.95;4.55;;;8.20;79.70;;;;;;5034953;28;20395;-79
2023/12/19 02:03:23;;;;;;;5.25;3.95;;;8.20;79.60;;;;;;5035910;28;20061;-81
2023/12/19 02:05:51;;;;;;;4.97;3.97;;;8.20;79.70;;;;;;5017163;28;20022;-82
2023/12/19 02:08:17;;;;;;;4.75;3.90;;;8.20;79.70;;;;;;5035279;28;20426;-80
2023/12/19 02:10:43;;;;;;;5.35;4.03;;;8.20;79.70;;;;;;5017110;28;20526;-81
2023/12/19 02:13:10;;;;;;;4.70;3.80;;;8.20;79.70;;;;;;5013367;28;20037;-81
2023/12/19 02:15:37;;;;;;;4.35;3.80;;;8.20;79.70;;;;;;5027600;28;20528;-80
2023/12/19 02:18:16;;;;;;;5.43;3.88;;;8.20;79.70;;;;;;5034786;28;20599;-79
2023/12/19 02:20:41;;;;;;;4.25;3.70;;;8.30;79.60;;;;;;5016646;28;20514;-81
2023/12/19 02:23:08;;;;;;;4.50;3.90;;;8.20;79.60;;;;;;5034551;28;20033;-81
2023/12/19 02:25:34;;;;;;;5.38;4.05;;;8.20;79.60;;;;;;5034982;28;20028;-81
2023/12/19 02:28:00;;;;;;;4.43;3.53;;;8.20;79.50;;;;;;5033736;28;20116;-80
2023/12/19 02:30:46;;;;;;;4.70;3.70;;;8.20;79.50;;;;;;5016894;28;20029;-80
2023/12/19 02:33:12;;;;;;;4.03;3.60;;;8.30;79.50;;;;;;5016702;28;20029;-80
2023/12/19 02:35:38;;;;;;;4.35;3.83;;;8.30;79.50;;;;;;5034036;28;20037;-79
2023/12/19 02:38:03;;;;;;;3.97;3.55;;;8.30;79.50;;;;;;5034702;28;20041;-80
2023/12/19 02:40:29;;;;;;;4.80;3.80;;;8.30;79.40;;;;;;5034240;28;20033;-81
2023/12/19 02:42:55;;;;;;;5.55;4.38;;;8.30;79.40;;;;;;5016197;28;20112;-80
2023/12/19 02:45:21;;;;;;;5.00;4.05;;;8.30;79.40;;;;;;5016156;28;20048;-81
2023/12/19 02:47:47;;;;;;;5.13;4.32;;;8.20;79.40;;;;;;5034283;28;20486;-82
2023/12/19 02:50:12;;;;;;;5.25;4.00;;;8.30;79.50;;;;;;5016280;28;20029;-81
2023/12/19 02:52:38;;;;;;;5.65;4.22;;;8.20;79.40;;;;;;5016382;28;20464;-80
2023/12/19 02:55:05;;;;;;;4.82;4.13;;;8.20;79.50;;;;;;5016137;28;20038;-79
2023/12/19 02:57:31;;;;;;;5.32;4.65;;;8.20;79.50;;;;;;5033938;28;20044;-82
2023/12/19 02:59:57;;;;;;;5.30;4.40;;;8.20;79.50;;;;;;5033967;28;20029;-81
2023/12/19 03:02:22;;;;;;;4.85;4.00;;;8.20;79.50;;;;;;5034324;28;20033;-81
2023/12/19 03:04:48;;;;;;;5.28;4.20;;;8.20;79.50;;;;;;5034394;28;20022;-80
2023/12/19 03:07:14;;;;;;;5.10;4.10;;;8.20;79.50;;;;;;5034054;28;20021;-81
2023/12/19 03:09:40;;;;;;;5.45;3.70;;;8.20;79.50;;;;;;5016131;28;20127;-79
2023/12/19 03:12:07;;;;;;;5.53;4.00;;;8.20;79.50;;;;;;5016947;28;20601;-81
2023/12/19 03:14:34;;;;;;;4.95;3.65;;;8.20;79.50;;;;;;5034046;28;20029;-81
2023/12/19 03:17:04;;;;;;;5.00;3.88;;;8.20;79.50;;;;;;5016511;28;20036;-81
2023/12/19 03:19:30;;;;;;;5.45;4.15;;;8.20;79.50;;;;;;5033959;28;20119;-80
2023/12/19 03:21:56;;;;;;;4.38;3.60;;;8.30;79.50;;;;;;5016429;28;20034;-81
2023/12/19 03:24:22;;;;;;;4.57;3.90;;;8.20;79.40;;;;;;5033951;28;20032;-80
2023/12/19 03:26:48;;;;;;;4.90;3.63;;;8.30;79.40;;;;;;5033721;28;20421;-80
2023/12/19 03:29:14;;;;;;;4.40;3.80;;;8.20;79.30;;;;;;5015850;28;20088;-80
2023/12/19 03:31:42;;;;;;;4.53;3.80;;;8.30;79.40;;;;;;5033465;28;20029;-81
2023/12/19 03:34:08;;;;;;;4.95;3.97;;;8.30;79.40;;;;;;5033630;28;20031;-81
2023/12/19 03:36:34;;;;;;;4.70;4.00;;;8.30;79.40;;;;;;5033284;28;20025;-80
2023/12/19 03:38:59;;;;;;;4.50;3.72;;;8.30;79.90;;;;;;5033889;28;20386;-80
2023/12/19 03:41:25;;;;;;;4.28;3.85;;;8.30;79.30;;;;;;5034106;28;20360;-80
2023/12/19 03:43:51;;;;;;;4.82;4.00;;;8.30;79.30;;;;;;5015810;28;20029;-80
2023/12/19 03:46:17;;;;;;;5.22;4.30;;;8.30;79.20;;;;;;5015474;28;20033;-80
2023/12/19 03:48:45;;;;;;;4.60;3.95;;;8.30;79.20;;;;;;5033168;28;20076;-81
2023/12/19 03:51:12;;;;;;;4.97;3.90;;;8.30;79.30;;;;;;5033280;28;20402;-81
2023/12/19 03:53:38;;;;;;;4.85;4.05;;;8.30;79.20;;;;;;5015723;28;20749;-79
2023/12/19 03:56:04;;;;;;;4.68;3.50;;;8.30;79.20;;;;;;5033516;28;20050;-80
2023/12/19 03:58:30;;;;;;;5.57;4.10;;;8.30;79.30;;;;;;5019386;28;20033;-81
2023/12/19 04:00:56;;;;;;;5.32;3.88;;;8.30;79.30;;;;;;5036554;28;20037;-80
2023/12/19 04:03:22;;;;;;;4.65;3.50;;;8.30;79.30;;;;;;5037542;28;20033;-80
2023/12/19 04:05:48;;;;;;;4.93;3.83;;;8.30;79.20;;;;;;5037086;28;20364;-80
2023/12/19 04:08:13;;;;;;;4.82;3.97;;;8.30;79.20;;;;;;5037199;28;20030;-80
2023/12/19 04:10:39;;;;;;;5.45;3.83;;;8.30;79.20;;;;;;5037352;28;20096;-81
2023/12/19 04:13:05;;;;;;;5.47;3.60;;;8.30;79.20;;;;;;5037152;28;20040;-81
2023/12/19 04:15:31;;;;;;;5.13;4.00;;;8.30;79.20;;;;;;5036903;28;20033;-79
2023/12/19 04:17:56;;;;;;;4.50;3.70;;;8.30;79.10;;;;;;5036476;28;20125;-80
2023/12/19 04:20:22;;;;;;;4.25;3.47;;;8.30;79.20;;;;;;5036987;28;20021;-80
2023/12/19 04:22:48;;;;;;;4.85;3.70;;;8.30;79.10;;;;;;5037499;28;20025;-81
2023/12/19 04:25:14;;;;;;;5.47;3.97;;;8.40;79.20;;;;;;5018760;28;20037;-78
2023/12/19 04:27:39;;;;;;;5.43;3.75;;;8.30;79.10;;;;;;5036963;28;20088;-80
2023/12/19 04:30:06;;;;;;;5.90;4.30;;;8.30;79.10;;;;;;5036490;28;20053;-83
2023/12/19 04:32:32;;;;;;;6.55;4.47;;;8.30;79.10;;;;;;5036697;28;20103;-81
2023/12/19 04:34:57;;;;;;;5.40;4.05;;;8.30;79.10;;;;;;5036131;28;20436;-80
2023/12/19 04:37:23;;;;;;;5.22;4.30;;;8.30;79.00;;;;;;5037252;28;20060;-80
2023/12/19 04:39:49;;;;;;;4.95;4.15;;;8.30;79.60;;;;;;5036249;28;20048;-80
2023/12/19 04:42:17;;;;;;;4.97;4.20;;;8.30;79.00;;;;;;5036529;28;20040;-82
2023/12/19 04:44:46;;;;;;;5.78;4.38;;;8.30;79.00;;;;;;5035618;28;20039;-81
2023/12/19 04:47:13;;;;;;;6.63;4.57;;;8.30;79.00;;;;;;5036531;28;20037;-80
2023/12/19 04:49:39;;;;;;;5.72;4.32;;;8.30;79.00;;;;;;5036445;28;20026;-80
2023/12/19 04:52:05;;;;;;;6.57;4.90;;;8.30;79.10;;;;;;5036340;28;20101;-80
2023/12/19 04:54:31;;;;;;;5.45;4.28;;;8.30;79.10;;;;;;5018862;28;20104;-81
2023/12/19 04:56:57;;;;;;;5.30;4.13;;;8.30;79.10;;;;;;5035382;28;20081;-79
2023/12/19 04:59:22;;;;;;;6.05;4.30;;;8.30;79.10;;;;;;5034161;28;20080;-81
2023/12/19 05:01:48;;;;;;;6.30;4.50;;;8.30;79.10;;;;;;5035272;28;20044;-81
2023/12/19 05:04:14;;;;;;;4.97;4.03;;;8.30;79.10;;;;;;5035393;28;20026;-80
2023/12/19 05:06:40;;;;;;;5.82;4.72;;;8.30;79.10;;;;;;5016932;28;20455;-79
2023/12/19 05:09:05;;;;;;;5.47;4.60;;;8.30;79.00;;;;;;5035314;28;20477;-81
2023/12/19 05:11:31;;;;;;;5.32;4.18;;;8.30;79.00;;;;;;5035076;28;20097;-79
2023/12/19 05:13:57;;;;;;;6.63;4.75;;;8.30;79.00;;;;;;5035154;28;20029;-75
2023/12/19 05:16:24;;;;;;;6.75;5.00;;;8.30;79.00;;;;;;5016876;28;20022;-77
2023/12/19 05:18:50;;;;;;;6.50;5.05;;;8.30;79.00;;;;;;5017347;28;20033;-78
2023/12/19 05:21:16;;;;;;;7.53;4.88;;;8.30;79.00;;;;;;5017397;28;20029;-81
2023/12/19 05:23:42;;;;;;;5.88;4.43;;;8.30;79.10;;;;;;5034913;28;20029;-80
2023/12/19 05:26:08;;;;;;;5.40;4.07;;;8.30;79.00;;;;;;5033150;28;20029;-78
2023/12/19 05:28:36;;;;;;;5.97;4.25;;;8.30;79.00;;;;;;5045508;28;20037;-79
2023/12/19 05:31:02;;;;;;;5.18;3.95;;;8.30;78.90;;;;;;5044723;28;20075;-82
2023/12/19 05:33:29;;;;;;;6.40;4.47;;;8.30;78.90;;;;;;5030128;28;20468;-78
2023/12/19 05:35:55;;;;;;;6.38;4.90;;;8.30;78.90;;;;;;5049765;28;20021;-82
2023/12/19 05:38:22;;;;;;;6.13;4.38;;;8.30;78.80;;;;;;5041867;28;20040;-84
2023/12/19 05:40:48;;;;;;;5.50;4.53;;;8.30;78.90;;;;;;5037358;28;20038;-82
2023/12/19 05:43:14;;;;;;;6.55;4.80;;;8.30;78.80;;;;;;5017779;28;20029;-85
2023/12/19 05:45:40;;;;;;;5.20;4.20;;;8.40;78.90;;;;;;5035511;28;20022;-87
2023/12/19 05:48:07;;;;;;;5.50;4.43;;;8.30;78.80;;;;;;5034118;28;20491;-80
2023/12/19 05:50:33;;;;;;;6.10;4.63;;;8.40;78.80;;;;;;5015990;28;20029;-86
2023/12/19 05:52:59;;;;;;;5.50;4.40;;;8.40;78.70;;;;;;5034138;28;20153;-81
2023/12/19 05:57:34;;;;;;;6.40;4.63;;;8.40;78.70;;;;;;5151899;27;20371;-80
2023/12/19 06:00:00;;;;;;;5.82;4.53;;;8.40;78.60;;;;;;5152708;27;20163;-80
2023/12/19 06:02:26;;;;;;;6.00;4.40;;;8.40;78.60;;;;;;5152486;27;20107;-80
2023/12/19 06:04:51;;;;;;;5.63;4.30;;;8.40;78.60;;;;;;5146060;27;20094;-80
2023/12/19 06:07:17;;;;;;;5.35;4.32;;;8.40;78.60;;;;;;5112405;28;20533;-81
2023/12/19 06:09:43;;;;;;;7.03;4.25;;;8.40;78.50;;;;;;5132078;27;20044;-81
2023/12/19 06:12:11;;;;;;;5.95;4.50;;;8.40;78.50;;;;;;5131777;27;20051;-82
2023/12/19 06:14:37;;;;;;;5.70;4.45;;;8.40;78.50;;;;;;5132175;27;20023;-79
2023/12/19 06:17:03;;;;;;;5.80;4.80;;;8.40;78.50;;;;;;5131552;27;20118;-80
2023/12/19 06:19:30;;;;;;;5.78;4.63;;;8.40;78.50;;;;;;5132619;28;20106;-80
2023/12/19 06:21:56;;;;;;;5.88;4.68;;;8.40;78.50;;;;;;5131762;28;20038;-79
2023/12/19 06:24:21;;;;;;;5.95;4.63;;;8.40;78.50;;;;;;5131692;27;20102;-80
2023/12/19 06:26:47;;;;;;;6.75;4.90;;;8.40;78.50;;;;;;5131556;28;20027;-81
2023/12/19 06:29:13;;;;;;;6.00;4.28;;;8.40;78.50;;;;;;5131629;28;20031;-80
2023/12/19 06:31:43;;;;;;;5.60;4.07;;;8.40;78.60;;;;;;5122843;27;20025;-82
2023/12/19 06:34:09;;;;;;;5.50;4.40;;;8.40;78.60;;;;;;5136345;27;20083;-78
2023/12/19 06:36:37;;;;;;;5.70;4.47;;;8.40;78.50;;;;;;5135556;27;20392;-82
2023/12/19 06:39:04;;;;;;;5.95;4.32;;;8.40;78.50;;;;;;5152407;27;20411;-80
2023/12/19 06:41:29;;;;;;;6.00;4.65;;;8.40;78.60;;;;;;5132057;27;20126;-80
2023/12/19 06:43:56;;;;;;;6.43;4.82;;;8.40;78.50;;;;;;5140236;27;20066;-79
2023/12/19 06:46:22;;;;;;;5.32;4.05;;;8.40;78.50;;;;;;5146284;27;20098;-80
2023/12/19 06:48:48;;;;;;;6.30;4.13;;;8.40;78.40;;;;;;5137691;27;20047;-80
2023/12/19 06:51:26;;;;;;;6.35;4.63;;;8.40;78.30;;;;;;5150521;27;20027;-79
2023/12/19 06:53:55;;;;;;;6.10;4.20;;;8.50;78.30;;;;;;5143969;27;20038;-79
2023/12/19 06:56:21;;;;;;;5.07;3.88;;;8.50;78.30;;;;;;5151655;27;20058;-79
2023/12/19 06:58:48;;;;;;;5.82;4.60;;;8.50;78.20;;;;;;5152137;27;20015;-84
2023/12/19 07:01:14;;;;;;;5.28;3.97;;;8.50;78.20;;;;;;5133298;27;20102;-83
2023/12/19 07:03:43;;;;;;;6.68;4.15;;;8.50;78.20;;;;;;5138563;27;20073;-84
2023/12/19 07:06:15;;;;;;;5.35;4.10;;;8.50;78.20;;;;;;5123378;28;20538;-87
2023/12/19 07:08:41;;;;;;;5.22;4.13;;;8.50;78.20;;;;;;5122541;28;20355;-86
2023/12/19 07:11:08;;;;;;;5.63;4.43;;;8.50;78.10;;;;;;5117205;28;20031;-84
2023/12/19 07:13:34;;;;;;;5.82;4.57;;;8.50;78.10;;;;;;5100315;28;20048;-83
2023/12/19 07:16:01;;;;;;;5.35;4.07;;;8.50;78.00;;;;;;5117380;28;20039;-80
2023/12/19 07:18:26;;;;;;;5.45;4.35;;;8.50;78.00;;;;;;5117421;28;20027;-82
2023/12/19 07:20:52;;;;;;;6.13;4.75;;;8.60;78.00;;;;;;5098731;28;20028;-82
2023/12/19 07:23:18;;;;;;;5.10;4.10;;;8.60;78.00;;;;;;5117129;28;20019;-81
2023/12/19 07:25:44;;;;;;;6.25;4.00;;;8.60;77.90;;;;;;5117890;27;20027;-81
2023/12/19 07:28:10;;;;;;;5.28;3.90;;;8.60;77.90;;;;;;5124446;27;20031;-80
2023/12/19 07:30:36;;;;;;;5.00;3.90;;;8.60;77.90;;;;;;5128356;27;20027;-82
2023/12/19 07:33:02;;;;;;;4.72;3.90;;;8.60;77.80;;;;;;5112871;28;20377;-81
2023/12/19 07:35:28;;;;;;;4.97;3.65;;;8.70;77.80;;;;;;5108676;27;20030;-81
2023/12/19 07:37:54;;;;;;;5.00;3.67;;;8.70;77.80;;;;;;5102459;28;20028;-83
2023/12/19 07:40:19;;;;;;;4.78;3.85;;;8.70;77.80;;;;;;5116805;28;20024;-84
2023/12/19 07:42:45;;;;;;;4.85;3.80;;;8.70;77.70;;;;;;5116263;28;20051;-82
2023/12/19 07:45:11;;;;;;;5.65;3.90;;;8.80;77.70;;;;;;5116874;28;20023;-82
2023/12/19 07:47:37;;;;;;;5.18;4.10;;;8.80;77.70;;;;;;5116789;28;20034;-82
2023/12/19 07:50:04;;;;;;;4.90;3.60;;;8.80;77.60;;;;;;5116360;28;20027;-81
2023/12/19 07:52:30;;;;;;;4.53;3.60;;;8.80;77.50;;;;;;5116577;28;20057;-82
2023/12/19 07:54:55;;;;;;;3.83;3.25;;;8.80;77.50;;;;;;5116052;28;20028;-83
2023/12/19 07:57:21;;;;;;;4.22;3.47;;;8.80;77.40;;;;;;5116427;28;20142;-82
2023/12/19 07:59:48;;;;;;;4.50;3.40;;;8.80;77.40;;;;;;5116908;28;20032;-81
2023/12/19 08:02:14;;;;;;;5.05;4.05;;;8.90;77.50;;;;;;5117813;27;20027;-84
2023/12/19 08:04:42;;;;;;;4.28;3.58;;;8.90;77.40;;;;;;5136487;27;20075;-81
2023/12/19 08:07:09;;;;;;;4.40;3.20;;;8.90;77.40;;;;;;5136425;27;20027;-82
2023/12/19 08:09:34;;;;;;;5.05;3.50;;;8.90;77.40;;;;;;5118173;27;20436;-80
2023/12/19 08:12:00;;;;;;;3.65;3.03;;;9.00;77.40;;;;;;5122386;27;20103;-82
2023/12/19 08:14:27;;;;;;;4.72;3.63;;;9.00;77.30;;;;;;5115976;28;20115;-82
2023/12/19 08:16:53;;;;;;;4.05;3.20;;;9.00;77.20;;;;;;5115726;28;20111;-82
2023/12/19 08:19:19;;;;;;;6.25;3.80;;;9.00;77.20;;;;;;5114815;28;20032;-82
2023/12/19 08:21:52;;;;;;;4.28;3.28;;;9.00;77.20;;;;;;5115779;28;20016;-81
2023/12/19 08:24:18;;;;;;;4.35;3.22;;;9.00;77.10;;;;;;5115546;28;20121;-82
2023/12/19 08:26:50;;;;;;;3.95;3.38;;;9.00;77.10;;;;;;5115897;28;20062;-82
2023/12/19 08:29:17;;;;;;;4.32;3.28;;;9.10;77.10;;;;;;5115993;28;20032;-81
2023/12/19 08:31:46;;;;;;;4.70;3.60;;;9.10;77.00;;;;;;5117601;28;20028;-81
2023/12/19 08:34:12;;;;;;;4.45;3.38;;;9.10;77.00;;;;;;5132356;27;20059;-82
2023/12/19 08:36:37;;;;;;;5.10;3.78;;;9.10;77.00;;;;;;5095062;28;20028;-81
2023/12/19 08:39:07;;;;;;;4.63;3.53;;;9.10;76.90;;;;;;5095320;28;20109;-82
2023/12/19 08:41:33;;;;;;;4.03;3.33;;;9.10;76.90;;;;;;5095363;28;20050;-81
2023/12/19 08:43:59;;;;;;;4.60;3.40;;;9.10;76.80;;;;;;5122830;27;20421;-83
2023/12/19 08:46:25;;;;;;;4.30;3.45;;;9.10;76.90;;;;;;5118814;27;20027;-80
2023/12/19 08:48:51;;;;;;;4.88;3.67;;;9.10;76.90;;;;;;5115190;28;20373;-81
2023/12/19 08:51:21;;;;;;;3.95;3.22;;;9.10;76.90;;;;;;5115195;28;20457;-83
2023/12/19 08:53:46;;;;;;;4.20;3.45;;;9.00;76.90;;;;;;5127289;27;20032;-82
2023/12/19 08:56:12;;;;;;;3.70;3.30;;;9.00;77.00;;;;;;5116836;27;20058;-81
2023/12/19 08:58:38;;;;;;;3.90;3.30;;;9.00;77.00;;;;;;5135420;27;20023;-82
2023/12/19 09:01:04;;;;;;;5.10;3.55;;;9.00;77.00;;;;;;5135487;27;20027;-82
2023/12/19 09:03:29;;;;;;;3.80;3.00;;;9.00;77.00;;;;;;5117005;27;20164;-84
2023/12/19 09:05:55;;;;;;;3.72;3.05;;;9.00;77.10;;;;;;5135211;27;20035;-82
2023/12/19 09:08:21;;;;;;;4.28;3.50;;;9.00;77.10;;;;;;5135713;27;20414;-83
2023/12/19 09:10:47;;;;;;;3.78;3.10;;;9.00;77.10;;;;;;5135420;27;20019;-82
2023/12/19 09:13:12;;;;;;;4.03;3.20;;;9.00;77.00;;;;;;5128486;27;20027;-81
2023/12/19 09:15:38;;;;;;;3.67;3.10;;;9.00;77.00;;;;;;5114469;28;20034;-80
2023/12/19 09:18:04;;;;;;;3.38;2.95;;;9.00;77.00;;;;;;5114880;28;20106;-82
2023/12/19 09:20:30;;;;;;;3.58;3.10;;;9.00;76.90;;;;;;5114429;28;20050;-82
2023/12/19 09:22:56;;;;;;;3.92;3.10;;;9.00;77.00;;;;;;5115487;27;20027;-81
2023/12/19 09:25:22;;;;;;;3.83;3.17;;;9.00;76.90;;;;;;5114668;28;20019;-81
2023/12/19 09:27:48;;;;;;;3.97;3.15;;;9.00;77.00;;;;;;5114549;28;20072;-82
2023/12/19 09:30:17;;;;;;;3.92;3.30;;;9.00;77.00;;;;;;5114256;28;20408;-82
2023/12/19 09:32:43;;;;;;;3.83;3.28;;;9.00;77.00;;;;;;5103256;27;20023;-82
2023/12/19 09:35:12;;;;;;;4.07;3.00;;;9.00;77.00;;;;;;5134735;27;20028;-81
2023/12/19 09:37:38;;;;;;;3.63;2.92;;;9.00;77.00;;;;;;5135219;27;20035;-81
2023/12/19 09:40:19;;;;;;;3.78;3.33;;;9.00;77.00;;;;;;5134876;27;20031;-81
2023/12/19 09:42:45;;;;;;;3.53;2.90;;;9.00;77.00;;;;;;5116685;28;20027;-80
2023/12/19 09:45:12;;;;;;;3.72;3.13;;;9.00;76.90;;;;;;5114266;28;20385;-80
2023/12/19 09:47:40;;;;;;;3.42;2.97;;;9.00;76.90;;;;;;5114389;28;20031;-81
2023/12/19 09:50:12;;;;;;;3.47;2.97;;;9.10;77.00;;;;;;5114378;28;20384;-83
2023/12/19 09:52:38;;;;;;;3.20;2.90;;;9.10;76.90;;;;;;5115728;28;20024;-83
2023/12/19 09:55:04;;;;;;;3.13;2.78;;;9.10;76.80;;;;;;5112740;28;20032;-81
2023/12/19 09:57:35;;;;;;;3.03;2.72;;;9.10;76.70;;;;;;5112868;28;20047;-82
2023/12/19 10:00:08;;;;;;;3.10;2.80;;;9.10;76.70;;;;;;5112989;28;20373;-83
2023/12/19 10:02:34;;;;;;;2.80;2.60;;;9.20;76.60;;;;;;5112903;28;20458;-82
2023/12/19 10:05:00;;;;;;;3.95;3.00;;;9.20;76.60;;;;;;5114103;28;20077;-81
2023/12/19 10:07:29;;;;;;;3.17;2.72;;;9.20;76.60;;;;;;5114331;28;20035;-82
2023/12/19 10:09:56;;;;;;;2.80;2.50;;;9.20;76.60;;;;;;5113189;28;20363;-81
2023/12/19 10:12:27;;;;;;;2.63;2.38;;;9.20;76.60;;;;;;5115228;28;20043;-80
2023/12/19 10:15:10;;;;;;;3.35;2.88;;;9.20;76.60;;;;;;5113520;28;20059;-80
2023/12/19 10:17:37;;;;;;;2.80;2.60;;;9.20;76.50;;;;;;5114122;28;20118;-81
2023/12/19 10:20:10;;;;;;;3.08;2.70;;;9.20;76.50;;;;;;5114064;28;20028;-81
2023/12/19 10:22:36;;;;;;;2.63;2.42;;;9.20;76.40;;;;;;5129557;28;20027;-82
2023/12/19 10:25:03;;;;;;;3.00;2.70;;;9.20;76.40;;;;;;5134420;27;20036;-82
2023/12/19 10:27:29;;;;;;;4.93;2.83;;;9.20;76.40;;;;;;5135051;28;20032;-84
2023/12/19 10:30:16;;;;;;;2.80;2.60;;;9.20;76.40;;;;;;5134681;28;20023;-81
2023/12/19 10:32:42;;;;;;;3.40;2.90;;;9.20;76.40;;;;;;5132865;27;20384;-81
2023/12/19 10:35:08;;;;;;;2.83;2.58;;;9.20;76.40;;;;;;5134500;28;20461;-82
2023/12/19 10:37:35;;;;;;;3.28;2.60;;;9.10;76.40;;;;;;5134534;27;20456;-82
2023/12/19 10:40:14;;;;;;;3.40;2.83;;;9.10;76.40;;;;;;5135859;28;20431;-81
2023/12/19 10:42:40;;;;;;;2.50;2.30;;;9.10;76.50;;;;;;5120223;28;20426;-82
2023/12/19 10:45:06;;;;;;;2.88;2.58;;;9.00;76.40;;;;;;5116537;28;20070;-82
2023/12/19 10:47:32;;;;;;;2.88;2.60;;;9.00;76.50;;;;;;5118048;28;20027;-82
2023/12/19 10:49:58;;;;;;;2.70;2.38;;;9.00;76.50;;;;;;5118612;27;20019;-82
2023/12/19 10:52:28;;;;;;;3.15;2.53;;;9.00;76.50;;;;;;5116305;28;20074;-83
2023/12/19 10:55:06;;;;;;;2.70;2.50;;;9.00;76.60;;;;;;5117498;28;20032;-82
2023/12/19 10:57:36;;;;;;;2.47;2.28;;;9.00;76.60;;;;;;5116301;28;20066;-83
2023/12/19 11:00:11;;;;;;;2.58;2.38;;;9.00;77.20;;;;;;5123804;27;20055;-82
2023/12/19 11:02:45;;;;;;;3.00;2.50;;;9.00;76.60;;;;;;5137549;27;20031;-81
2023/12/19 11:05:17;;;;;;;2.88;2.58;;;9.00;76.60;;;;;;5137843;27;20071;-83
2023/12/19 11:07:44;;;;;;;3.10;2.80;;;9.00;76.70;;;;;;5137909;27;20054;-83
2023/12/19 11:10:14;;;;;;;2.60;2.40;;;9.00;76.70;;;;;;5130132;27;20024;-83
2023/12/19 11:12:41;;;;;;;2.83;2.53;;;9.00;76.60;;;;;;5117119;27;20020;-82
2023/12/19 11:15:07;;;;;;;3.08;2.67;;;9.00;76.60;;;;;;5116987;28;20032;-82
2023/12/19 11:17:55;;;;;;;2.88;2.65;;;9.00;76.70;;;;;;5117035;28;20032;-83
2023/12/19 11:20:40;;;;;;;2.90;2.65;;;9.00;76.60;;;;;;5125482;27;20042;-82
2023/12/19 11:23:31;;;;;;;2.80;2.60;;;9.00;76.60;;;;;;5118758;27;20027;-81
2023/12/19 11:26:23;;;;;;;3.13;2.70;;;9.00;76.60;;;;;;5119542;27;20031;-82
2023/12/19 11:28:49;;;;;;;5.82;2.55;;;9.00;76.50;;;;;;5074415;27;20027;-81
2023/12/19 11:31:36;;;;;;;2.83;2.55;;;9.00;76.50;;;;;;5135825;27;20058;-84
2023/12/19 11:34:21;;;;;;;3.50;2.83;;;9.10;76.50;;;;;;5118955;27;20059;-81
2023/12/19 11:36:59;;;;;;;3.17;2.88;;;9.10;76.50;;;;;;5137031;27;20030;-81
2023/12/19 11:39:30;;;;;;;3.53;2.95;;;9.10;76.50;;;;;;5136371;27;20503;-84
2023/12/19 11:41:57;;;;;;;3.13;2.72;;;9.10;76.50;;;;;;5115173;28;20106;-81
2023/12/19 11:44:32;;;;;;;2.88;2.60;;;9.10;76.50;;;;;;5116892;28;20024;-84
2023/12/19 11:47:18;;;;;;;3.20;2.90;;;9.10;76.50;;;;;;5116539;28;20098;-81
2023/12/19 11:49:44;;;;;;;3.33;2.90;;;9.20;76.50;;;;;;5106235;27;20062;-83
2023/12/19 11:52:32;;;;;;;3.15;2.80;;;9.10;76.40;;;;;;5139413;27;20031;-85
2023/12/19 11:54:59;;;;;;;2.63;2.42;;;9.10;76.40;;;;;;5114576;28;20034;-81
2023/12/19 11:57:24;;;;;;;2.90;2.60;;;9.20;76.40;;;;;;5117992;28;20055;-89
2023/12/19 11:59:55;;;;;;;3.15;2.72;;;9.20;76.40;;;;;;5122904;28;20091;-92
2023/12/19 12:02:34;;;;;;;3.28;2.90;;;9.20;76.40;;;;;;5124469;28;20024;-82
2023/12/19 12:05:17;;;;;;;3.22;2.90;;;9.20;76.40;;;;;;5124615;27;20036;-77
2023/12/19 12:07:48;;;;;;;4.70;3.10;;;9.20;76.40;;;;;;5101599;27;20032;-85
2023/12/19 12:10:16;;;;;;;3.45;3.08;;;9.20;76.40;;;;;;5136962;27;20057;-89
2023/12/19 12:12:42;;;;;;;3.10;2.80;;;9.20;76.30;;;;;;5108846;27;20492;-81
2023/12/19 12:15:14;;;;;;;3.90;3.22;;;9.20;76.40;;;;;;5090934;28;20114;-84
2023/12/19 12:17:40;;;;;;;3.05;2.78;;;9.30;76.40;;;;;;5116194;27;20034;-80
2023/12/19 12:20:06;;;;;;;4.03;3.10;;;9.30;76.40;;;;;;5130415;27;20035;-84
2023/12/19 12:22:33;;;;;;;3.30;2.90;;;9.30;76.40;;;;;;5113217;27;20034;-85
2023/12/19 12:25:00;;;;;;;3.05;2.70;;;9.30;76.30;;;;;;5126456;27;20024;-82
2023/12/19 12:27:27;;;;;;;3.55;2.83;;;9.40;76.30;;;;;;5114476;28;20222;-84
2023/12/19 12:29:53;;;;;;;3.33;2.80;;;9.30;76.10;;;;;;5128389;27;20023;-84
2023/12/19 12:32:19;;;;;;;3.72;2.95;;;9.30;76.20;;;;;;5113056;27;20027;-80
2023/12/19 12:34:45;;;;;;;3.80;3.25;;;9.30;76.20;;;;;;5110901;28;20045;-81
2023/12/19 12:37:11;;;;;;;3.88;3.38;;;9.40;76.20;;;;;;5098017;28;20123;-80
2023/12/19 12:39:37;;;;;;;3.78;3.00;;;9.30;76.20;;;;;;5099439;27;20027;-85
2023/12/19 12:42:04;;;;;;;3.97;3.17;;;9.30;76.20;;;;;;5113099;27;20055;-82
2023/12/19 12:44:30;;;;;;;5.22;3.65;;;9.30;76.20;;;;;;5101366;28;20028;-80
2023/12/19 12:46:59;;;;;;;4.45;3.67;;;9.30;76.20;;;;;;5115342;28;20167;-89
2023/12/19 12:49:26;;;;;;;4.93;3.63;;;9.30;76.30;;;;;;5118232;27;20038;-82
2023/12/19 12:51:59;;;;;;;3.70;3.30;;;9.30;76.30;;;;;;5127626;27;20015;-82
2023/12/19 12:54:25;;;;;;;4.75;3.50;;;9.30;76.40;;;;;;5118707;27;20023;-86
2023/12/19 12:56:51;;;;;;;5.28;3.70;;;9.30;76.40;;;;;;5101188;28;20185;-84
2023/12/19 12:59:20;;;;;;;4.03;3.38;;;9.20;76.40;;;;;;5106786;28;20489;-85
2023/12/19 13:01:49;;;;;;;4.25;3.55;;;9.20;76.40;;;;;;5095934;28;20051;-83